createdAt,value
2018-03-21T00:01:36.257Z,93.40
2018-03-21T00:06:10.308Z,94.20
2018-03-21T00:10:44.289Z,94.20
2018-03-21T00:15:17.719Z,94.10
2018-03-21T00:19:51.724Z,94.30
2018-03-21T00:24:26.523Z,94.10
2018-03-21T00:28:59.906Z,94.10
2018-03-21T00:33:33.314Z,94.20
2018-03-21T00:38:07.537Z,94.90
2018-03-21T00:42:41.702Z,95.00
2018-03-21T00:47:14.988Z,95.00
2018-03-21T00:51:48.308Z,95.10
2018-03-21T00:56:22.212Z,95.20
2018-03-21T01:00:56.253Z,94.40
2018-03-21T01:05:29.819Z,94.30
2018-03-21T01:10:03.267Z,94.10
2018-03-21T01:14:37.314Z,94.30
2018-03-21T01:19:11.525Z,94.20
2018-03-21T01:23:46.431Z,95.10
2018-03-21T01:28:19.922Z,95.10
2018-03-21T01:32:53.313Z,95.30
2018-03-21T01:37:26.600Z,95.20
2018-03-21T01:42:00.764Z,94.90
2018-03-21T01:46:34.241Z,94.90
2018-03-21T01:51:08.852Z,95.10
2018-03-21T01:55:42.402Z,95.00
2018-03-21T02:00:16.530Z,95.20
2018-03-21T02:04:50.528Z,95.20
2018-03-21T02:09:23.794Z,95.20
2018-03-21T02:13:57.626Z,95.30
2018-03-21T02:18:30.896Z,95.10
2018-03-21T02:23:04.967Z,95.00
2018-03-21T02:27:38.369Z,95.00
2018-03-21T02:32:11.843Z,94.90
2018-03-21T02:36:45.890Z,95.10
2018-03-21T02:41:19.280Z,95.10
2018-03-21T02:45:53.334Z,95.40
2018-03-21T02:50:27.597Z,95.40
2018-03-21T02:55:00.923Z,95.40
2018-03-21T02:59:36.716Z,95.50
2018-03-21T03:04:10.046Z,95.50
2018-03-21T03:08:44.158Z,95.40
2018-03-21T03:13:17.799Z,95.50
2018-03-21T03:17:51.201Z,95.60
2018-03-21T03:22:24.591Z,96.00
2018-03-21T03:26:58.652Z,96.40
2018-03-21T03:31:32.291Z,96.40
2018-03-21T03:36:05.613Z,96.40
2018-03-21T03:40:40.389Z,96.60
2018-03-21T03:45:14.449Z,96.90
2018-03-21T03:49:47.769Z,96.90
2018-03-21T03:54:21.235Z,97.20
2018-03-21T03:58:55.289Z,97.20
2018-03-21T04:03:28.542Z,97.20
2018-03-21T04:08:01.818Z,97.10
2018-03-21T04:12:35.818Z,96.80
2018-03-21T04:17:09.137Z,96.80
2018-03-21T04:21:42.751Z,96.70
2018-03-21T04:26:16.754Z,97.00
2018-03-21T04:30:50.796Z,96.80
2018-03-21T04:35:24.201Z,96.80
2018-03-21T04:39:57.496Z,96.50
2018-03-21T04:44:31.553Z,96.80
2018-03-21T04:49:05.158Z,96.80
2018-03-21T04:53:38.413Z,96.90
2018-03-21T04:58:11.702Z,96.80
2018-03-21T05:02:45.000Z,96.60
2018-03-21T05:07:19.062Z,96.90
2018-03-21T05:11:52.509Z,96.50
2018-03-21T05:16:27.222Z,97.20
2018-03-21T05:21:00.582Z,97.10
2018-03-21T05:25:33.994Z,97.40
2018-03-21T05:30:07.303Z,97.40
2018-03-21T05:34:40.847Z,97.50
2018-03-21T05:39:14.236Z,97.70
2018-03-21T05:43:47.979Z,97.70
2018-03-21T05:48:21.292Z,97.40
2018-03-21T05:52:55.463Z,97.80
2018-03-21T05:57:29.732Z,97.50
2018-03-21T06:02:03.031Z,97.50
2018-03-21T06:06:36.452Z,97.00
2018-03-21T06:11:09.747Z,97.20
2018-03-21T06:15:43.166Z,97.10
2018-03-21T06:20:16.437Z,97.10
2018-03-21T06:24:50.673Z,96.70
2018-03-21T06:29:24.729Z,96.50
2018-03-21T06:33:58.521Z,96.50
2018-03-21T06:38:32.687Z,95.60
2018-03-21T06:43:06.083Z,95.60
2018-03-21T06:47:40.072Z,95.10
2018-03-21T06:52:13.326Z,94.90
2018-03-21T06:56:46.806Z,94.90
2018-03-21T07:01:20.932Z,93.80
2018-03-21T07:05:54.990Z,93.10
2018-03-21T07:10:28.278Z,93.40
2018-03-21T07:15:14.150Z,91.90
2018-03-21T07:19:47.441Z,91.90
2018-03-21T07:24:21.509Z,91.00
2018-03-21T07:28:56.358Z,87.20
2018-03-21T07:33:30.481Z,80.50
2018-03-21T07:38:04.646Z,75.30
2018-03-21T07:42:38.740Z,75.20
2018-03-21T07:47:13.176Z,65.90
2018-03-21T07:51:47.234Z,56.40
2018-03-21T07:56:20.609Z,56.30
2018-03-21T08:00:54.662Z,51.80
2018-03-21T08:05:28.051Z,51.70
2018-03-21T08:10:02.093Z,47.70
2018-03-21T08:14:35.382Z,47.50
2018-03-21T08:19:09.543Z,51.60
2018-03-21T08:23:43.168Z,51.50
2018-03-21T08:28:16.542Z,49.90
2018-03-21T08:32:50.671Z,47.10
2018-03-21T08:37:24.800Z,47.10
2018-03-21T08:41:59.277Z,44.90
2018-03-21T08:46:32.577Z,44.90
2018-03-21T08:51:05.984Z,41.50
2018-03-21T08:55:39.441Z,43.00
2018-03-21T09:00:12.704Z,41.80
2018-03-21T09:04:46.194Z,39.90
2018-03-21T09:09:20.286Z,40.60
2018-03-21T09:13:53.944Z,40.60
2018-03-21T09:18:28.275Z,43.40
2018-03-21T09:23:02.498Z,45.10
2018-03-21T09:27:36.552Z,41.90
2018-03-21T09:32:10.041Z,41.20
2018-03-21T09:36:44.167Z,43.70
2018-03-21T09:41:18.214Z,40.90
2018-03-21T09:45:51.485Z,40.80
2018-03-21T09:50:25.537Z,35.90
2018-03-21T09:54:59.170Z,35.80
2018-03-21T09:59:32.438Z,34.00
2018-03-21T10:04:05.701Z,36.60
2018-03-21T10:08:39.173Z,36.30
2018-03-21T10:13:13.301Z,31.80
2018-03-21T10:17:47.335Z,32.20
2018-03-21T10:22:21.491Z,32.50
2018-03-21T10:26:54.796Z,32.50
2018-03-21T10:31:28.096Z,35.30
2018-03-21T10:36:01.589Z,34.60
2018-03-21T10:40:35.760Z,35.80
2018-03-21T10:45:09.724Z,35.80
2018-03-21T10:49:43.874Z,28.60
2018-03-21T10:54:18.834Z,27.10
2018-03-21T10:58:52.882Z,27.10
2018-03-21T11:03:26.146Z,26.20
2018-03-21T11:08:00.302Z,28.20
2018-03-21T11:12:34.534Z,28.10
2018-03-21T11:17:08.138Z,25.30
2018-03-21T11:21:41.698Z,24.20
2018-03-21T11:26:15.559Z,26.20
2018-03-21T11:30:49.589Z,22.70
2018-03-21T11:35:23.625Z,25.20
2018-03-21T11:39:56.927Z,25.10
2018-03-21T11:44:30.966Z,26.50
2018-03-21T11:49:04.238Z,26.50
2018-03-21T11:53:37.570Z,26.70
2018-03-21T11:58:10.920Z,25.60
2018-03-21T12:02:44.192Z,27.00
2018-03-21T12:07:18.315Z,22.60
2018-03-21T12:11:52.356Z,22.30
2018-03-21T12:16:26.205Z,22.20
2018-03-21T12:20:59.505Z,21.10
2018-03-21T12:25:32.814Z,21.40
2018-03-21T12:30:06.195Z,22.70
2018-03-21T12:34:40.355Z,25.30
2018-03-21T12:39:16.624Z,25.20
2018-03-21T12:43:49.950Z,22.10
2018-03-21T12:48:23.550Z,21.80
2018-03-21T12:52:56.829Z,20.90
2018-03-21T12:57:30.880Z,23.30
2018-03-21T13:02:04.163Z,23.20
2018-03-21T13:06:38.186Z,25.20
2018-03-21T13:11:12.355Z,25.20
2018-03-21T13:15:45.636Z,25.20
2018-03-21T13:20:19.728Z,26.10
2018-03-21T13:24:53.002Z,26.10
2018-03-21T13:29:26.380Z,26.40
2018-03-21T13:34:01.330Z,25.20
2018-03-21T13:38:35.360Z,23.40
2018-03-21T13:43:09.730Z,25.70
2018-03-21T13:47:43.099Z,25.70
2018-03-21T13:52:17.225Z,24.60
2018-03-21T13:56:51.272Z,23.20
2018-03-21T14:01:24.573Z,23.10
2018-03-21T14:05:57.907Z,23.20
2018-03-21T14:10:31.286Z,23.80
2018-03-21T14:15:05.352Z,24.60
2018-03-21T14:19:38.644Z,24.60
2018-03-21T14:24:12.028Z,24.30
2018-03-21T14:28:46.073Z,25.70
2018-03-21T14:33:19.363Z,25.70
2018-03-21T14:37:53.520Z,26.70
2018-03-21T14:42:26.778Z,26.60
2018-03-21T14:47:00.216Z,28.30
2018-03-21T14:51:35.145Z,29.90
2018-03-21T14:56:08.570Z,29.90
2018-03-21T15:00:42.698Z,29.50
2018-03-21T15:05:16.835Z,28.70
2018-03-21T15:09:50.867Z,28.80
2018-03-21T15:14:24.125Z,28.70
2018-03-21T15:18:58.078Z,28.80
2018-03-21T15:23:31.426Z,30.50
2018-03-21T15:28:04.693Z,30.30
2018-03-21T15:32:38.832Z,31.00
2018-03-21T15:37:12.882Z,30.30
2018-03-21T15:41:46.147Z,30.30
2018-03-21T15:46:19.416Z,31.10
2018-03-21T15:50:52.704Z,30.80
2018-03-21T15:55:26.094Z,30.20
2018-03-21T16:00:00.152Z,30.70
2018-03-21T16:04:33.984Z,30.60
2018-03-21T16:09:07.355Z,31.20
2018-03-21T16:13:41.481Z,32.20
2018-03-21T16:18:14.758Z,32.20
2018-03-21T16:22:48.330Z,31.70
2018-03-21T16:27:21.592Z,33.80
2018-03-21T16:31:54.871Z,35.20
2018-03-21T16:36:28.177Z,33.90
2018-03-21T16:41:01.550Z,33.20
2018-03-21T16:45:34.870Z,33.80
2018-03-21T16:50:08.959Z,34.50
2018-03-21T16:54:42.288Z,37.20
2018-03-21T16:59:16.314Z,40.80
2018-03-21T17:03:50.336Z,40.60
2018-03-21T17:08:24.366Z,41.40
2018-03-21T17:12:58.499Z,42.40
2018-03-21T17:17:33.218Z,41.50
2018-03-21T17:22:07.161Z,41.50
2018-03-21T17:26:41.826Z,41.60
2018-03-21T17:31:15.135Z,41.60
2018-03-21T17:35:48.524Z,45.10
2018-03-21T17:40:21.864Z,52.60
2018-03-21T17:44:55.743Z,55.70
2018-03-21T17:49:29.984Z,59.40
2018-03-21T17:54:04.114Z,60.20
2018-03-21T17:58:38.276Z,61.00
2018-03-21T18:03:12.557Z,61.00
2018-03-21T18:07:46.630Z,65.50
2018-03-21T18:12:20.602Z,64.60
2018-03-21T18:16:53.958Z,66.80
2018-03-21T18:21:27.585Z,67.30
2018-03-21T18:26:00.900Z,70.90
2018-03-21T18:30:34.210Z,71.70
2018-03-21T18:35:07.820Z,70.70
2018-03-21T18:39:41.385Z,69.70
2018-03-21T18:44:15.454Z,69.80
2018-03-21T18:48:48.748Z,69.70
2018-03-21T18:53:22.409Z,70.70
2018-03-21T18:57:55.680Z,71.00
2018-03-21T19:02:28.974Z,71.00
2018-03-21T19:07:03.209Z,71.10
2018-03-21T19:11:36.612Z,71.00
2018-03-21T19:16:10.840Z,74.00
2018-03-21T19:20:45.501Z,76.80
2018-03-21T19:25:18.872Z,76.80
2018-03-21T19:29:52.410Z,77.60
2018-03-21T19:34:26.062Z,78.20
2018-03-21T19:38:59.404Z,77.50
2018-03-21T19:43:33.487Z,77.30
2018-03-21T19:48:06.790Z,77.30
2018-03-21T19:52:40.054Z,78.00
2018-03-21T19:57:13.553Z,77.50
2018-03-21T20:01:46.831Z,77.20
2018-03-21T20:06:20.748Z,78.50
2018-03-21T20:10:54.062Z,77.40
2018-03-21T20:15:27.978Z,77.50
2018-03-21T20:20:01.402Z,78.20
2018-03-21T20:24:34.778Z,79.70
2018-03-21T20:29:09.163Z,75.40
2018-03-21T20:33:42.552Z,75.40
2018-03-21T20:38:16.447Z,75.40
2018-03-21T20:42:50.511Z,77.50
2018-03-21T20:47:23.807Z,77.40
2018-03-21T20:51:57.077Z,78.60
2018-03-21T20:56:31.222Z,80.20
2018-03-21T21:01:05.374Z,79.40
2018-03-21T21:05:39.218Z,79.40
2018-03-21T21:10:12.686Z,79.60
2018-03-21T21:14:46.746Z,80.40
2018-03-21T21:19:20.050Z,80.40
2018-03-21T21:23:53.432Z,81.30
2018-03-21T21:28:27.478Z,81.80
2018-03-21T21:33:00.799Z,81.80
2018-03-21T21:37:34.109Z,80.80
2018-03-21T21:42:08.104Z,79.60
2018-03-21T21:46:42.496Z,82.70
2018-03-21T21:51:15.788Z,82.70
2018-03-21T21:55:49.187Z,81.90
2018-03-21T22:00:22.441Z,82.40
2018-03-21T22:04:55.873Z,82.60
2018-03-21T22:09:29.926Z,82.50
2018-03-21T22:14:03.347Z,83.30
2018-03-21T22:18:36.726Z,84.00
2018-03-21T22:23:10.754Z,82.50
2018-03-21T22:27:44.780Z,82.50
2018-03-21T22:32:18.904Z,83.30
2018-03-21T22:36:52.956Z,82.70
2018-03-21T22:41:26.970Z,82.70
2018-03-21T22:46:00.233Z,82.80
2018-03-21T22:50:34.276Z,81.80
2018-03-21T22:55:08.420Z,83.30
2018-03-21T22:59:42.582Z,84.80
2018-03-21T23:04:15.886Z,84.80
2018-03-21T23:08:49.198Z,85.90
2018-03-21T23:13:22.819Z,85.20
2018-03-21T23:17:56.302Z,84.40
2018-03-21T23:22:30.355Z,85.50
2018-03-21T23:27:03.650Z,85.50
2018-03-21T23:31:36.916Z,84.00
2018-03-21T23:36:10.259Z,86.00
2018-03-21T23:40:43.588Z,86.00
2018-03-21T23:45:17.073Z,86.50
2018-03-21T23:49:51.128Z,85.90
2018-03-21T23:54:24.432Z,85.80
2018-03-21T23:58:57.820Z,86.40
